Time;durP1;ratioP1;P1;durP2;ratioP2;P2;SDS_P1;SDS_P2;PMS_P1;PMS_P2;Temp;Humidity;BMP_temperature;BMP_pressure;BME280_temperature;BME280_humidity;BME280_pressure;Samples;Min_cycle;Max_cycle;Signal;HPM_P1;HPM_P2
2022/02/06 00:02:28;;;;;;;38.30;7.07;;;;;;;11.64;70.73;99538.72;4886865;28;120847;-88
2022/02/06 00:04:54;;;;;;;38.38;7.55;;;;;;;11.88;70.18;99556.94;4887036;28;119503;-88
2022/02/06 00:07:20;;;;;;;29.42;7.00;;;;;;;11.76;70.61;99516.81;4878432;28;120178;-85
2022/02/06 00:09:48;;;;;;;29.95;6.90;;;;;;;11.73;70.33;99510.31;4853461;28;119741;-90
2022/02/06 00:12:14;;;;;;;36.20;7.43;;;;;;;11.92;70.32;99530.00;4879892;28;120532;-85
2022/02/06 00:14:40;;;;;;;28.35;6.28;;;;;;;11.73;69.85;99479.34;4868964;28;119879;-86
2022/02/06 00:17:07;;;;;;;37.17;6.28;;;;;;;11.76;69.46;99500.34;4850684;28;121815;-84
2022/02/06 00:19:33;;;;;;;29.48;6.47;;;;;;;11.77;69.85;99491.63;4865864;28;123482;-87
2022/02/06 00:22:02;;;;;;;26.77;6.20;;;;;;;11.86;69.51;99498.97;4864085;28;120429;-88
2022/02/06 00:24:43;;;;;;;24.45;6.25;;;;;;;11.97;69.57;99504.53;4871482;28;119882;-85
2022/02/06 00:27:23;;;;;;;26.48;5.88;;;;;;;11.76;70.28;99486.59;4877441;28;123262;-87
2022/02/06 00:29:56;;;;;;;26.13;5.93;;;;;;;11.86;70.14;99482.50;4867152;28;120404;-88
2022/02/06 00:32:38;;;;;;;21.43;5.77;;;;;;;11.82;69.75;99479.94;4878106;28;122884;-92
2022/02/06 00:40:42;;;;;;;;;;;;;;;12.07;69.68;99492.16;4855064;28;123449;-85
2022/02/06 00:43:08;;;;;;;37.80;11.90;;;;;;;12.02;70.43;99476.34;4868974;28;119956;-85
2022/02/06 00:45:33;;;;;;;30.60;7.90;;;;;;;12.10;69.58;99485.66;4879769;28;121767;-84
2022/02/06 00:47:59;;;;;;;30.00;7.68;;;;;;;12.12;69.54;99457.69;4864041;28;123443;-84
2022/02/06 00:50:25;;;;;;;31.50;7.25;;;;;;;12.13;69.66;99453.69;4883806;28;120037;-87
2022/02/06 00:53:03;;;;;;;30.35;7.00;;;;;;;12.15;69.27;99456.72;4884125;28;122637;-86
2022/02/06 00:55:28;;;;;;;29.42;7.35;;;;;;;12.22;70.11;99459.75;4875430;28;123820;-86
2022/02/06 00:57:54;;;;;;;32.72;6.47;;;;;;;12.05;69.96;99438.88;4888174;28;121058;-87
2022/02/06 01:00:23;;;;;;;25.70;6.22;;;;;;;12.23;68.82;99452.25;4869295;28;123739;-88
2022/02/06 01:02:52;;;;;;;25.17;6.45;;;;;;;12.21;69.60;99455.50;4868353;28;120062;-90
2022/02/06 01:05:20;;;;;;;27.35;6.32;;;;;;;11.77;69.80;99384.47;4850332;28;122833;-84
2022/02/06 01:07:56;;;;;;;;;;;;;;;;;;;;;
2022/02/06 01:10:25;;;;;;;33.05;6.15;;;;;;;11.84;69.02;99381.31;4875786;28;119915;-88
2022/02/06 01:12:59;;;;;;;36.17;6.72;;;;;;;12.06;69.10;99421.91;4881558;28;120546;-85
2022/02/06 01:15:35;;;;;;;31.13;6.90;;;;;;;12.20;69.16;99429.25;4869895;28;121128;-86
2022/02/06 01:18:05;;;;;;;34.88;6.20;;;;;;;12.02;68.89;99390.41;4889338;28;119528;-87
2022/02/06 01:20:39;;;;;;;30.60;6.40;;;;;;;12.16;69.35;99400.50;4878485;28;122140;-87
2022/02/06 01:23:10;;;;;;;33.42;7.18;;;;;;;12.05;69.95;99368.19;4879076;28;120066;-84
2022/02/06 01:25:51;;;;;;;29.92;6.57;;;;;;;11.94;68.71;99338.66;4881323;28;123086;-89
2022/02/06 01:28:32;;;;;;;30.60;7.20;;;;;;;12.13;68.57;99365.75;4895647;28;123050;-87
2022/02/06 01:31:05;;;;;;;29.25;6.50;;;;;;;12.11;68.50;99371.72;4865838;28;119650;-86
2022/02/06 01:33:37;;;;;;;37.80;7.30;;;;;;;12.26;69.11;99382.53;4885172;28;122285;-87
2022/02/06 01:36:10;;;;;;;35.20;7.38;;;;;;;12.10;69.00;99351.00;4882253;28;123056;-85
2022/02/06 01:41:20;;;;;;;34.45;7.72;;;;;;;11.99;69.59;99337.94;4881284;28;123243;-84
2022/02/06 01:43:52;;;;;;;37.30;7.45;;;;;;;11.84;69.42;99317.38;4876597;28;119617;-88
2022/02/06 02:08:25;;;;;;;39.40;8.80;;;;;;;12.26;69.49;99327.56;4879128;28;122155;-87
2022/02/06 02:11:01;;;;;;;37.38;8.75;;;;;;;12.29;69.55;99340.31;4872459;28;120717;-88
2022/02/06 02:19:49;;;;;;;38.42;7.68;;;;;;;12.23;69.25;99304.56;4873370;28;120246;-86
2022/02/06 02:25:21;;;;;;;34.97;8.15;;;;;;;12.02;69.45;99264.00;4863973;28;119839;-88
2022/02/06 02:27:56;;;;;;;36.72;8.05;;;;;;;12.10;69.32;99268.53;4876255;28;120556;-86
2022/02/06 02:46:02;;;;;;;45.58;8.60;;;;;;;12.49;68.80;99273.38;4856888;28;122719;-83
2022/02/06 02:48:28;;;;;;;45.15;8.30;;;;;;;12.48;68.56;99263.63;4882832;28;121695;-82
2022/02/06 02:50:59;;;;;;;42.40;8.68;;;;;;;12.24;67.98;99240.06;4866848;28;119726;-83
2022/02/06 02:53:47;;;;;;;43.42;8.98;;;;;;;12.45;68.38;99257.13;4895365;28;120677;-85
2022/02/06 02:59:20;;;;;;;45.08;9.10;;;;;;;12.46;67.72;99252.38;4878027;28;120204;-85
2022/02/06 03:01:57;;;;;;;39.65;8.52;;;;;;;12.39;67.95;99242.63;4872732;28;120726;-87
2022/02/06 03:04:23;;;;;;;45.35;7.78;;;;;;;12.45;68.34;99261.88;4876895;28;120026;-86
2022/02/06 03:06:49;;;;;;;46.17;9.55;;;;;;;12.43;67.50;99239.63;4843695;28;121896;-88
2022/02/06 03:09:16;;;;;;;35.15;7.10;;;;;;;12.35;67.77;99239.38;4879830;28;123333;-86
2022/02/06 03:11:41;;;;;;;28.40;5.57;;;;;;;12.36;67.77;99242.88;4865324;28;119608;-86
2022/02/06 03:16:36;;;;;;;21.73;4.50;;;;;;;12.21;67.12;99227.34;4894772;28;120245;-85
2022/02/06 03:19:16;;;;;;;;;;;;;;;;;;;;;
2022/02/06 03:21:30;;;;;;;23.55;4.95;;;;;;;12.34;66.83;99229.63;4884320;28;124390;-88
2022/02/06 03:24:07;;;;;;;24.50;5.30;;;;;;;12.33;67.08;99241.88;4865760;28;120160;-86
2022/02/06 03:26:32;;;;;;;29.55;5.32;;;;;;;12.10;66.62;99204.59;4872750;28;122519;-89
2022/02/06 03:28:58;;;;;;;23.88;4.82;;;;;;;12.13;66.92;99215.31;4895678;28;120120;-83
2022/02/06 03:31:24;;;;;;;22.50;4.75;;;;;;;12.16;66.67;99225.31;4881597;28;120089;-83
2022/02/06 03:33:51;;;;;;;25.58;6.03;;;;;;;11.95;67.41;99194.53;4868524;28;123341;-85
2022/02/06 03:36:20;;;;;;;27.67;4.18;;;;;;;11.99;67.13;99195.03;4898301;28;123002;-85
2022/02/06 03:38:51;;;;;;;20.77;4.47;;;;;;;12.14;67.14;99216.81;4880422;28;119876;-86
2022/02/06 03:41:17;;;;;;;27.23;4.10;;;;;;;11.91;66.87;99187.78;4881660;28;120651;-84
2022/02/06 03:43:53;;;;;;;27.33;4.75;;;;;;;12.21;67.48;99219.09;4895960;28;120006;-84
2022/02/06 03:46:37;;;;;;;20.42;4.15;;;;;;;12.21;67.11;99221.84;4895941;28;123485;-84
2022/02/06 03:49:16;;;;;;;24.45;4.60;;;;;;;12.18;66.94;99222.84;4875135;28;120185;-84
2022/02/06 03:51:42;;;;;;;19.83;4.32;;;;;;;12.07;66.87;99211.81;4881957;28;119518;-82
2022/02/06 03:54:10;;;;;;;21.10;3.83;;;;;;;12.12;67.52;99202.84;4898164;28;120615;-80
2022/02/06 03:56:40;;;;;;;21.30;4.03;;;;;;;12.10;67.21;99197.09;4867962;28;123256;-86
2022/02/06 03:59:06;;;;;;;17.58;3.55;;;;;;;12.16;66.42;99214.34;4882618;28;122158;-84
2022/02/06 04:01:31;;;;;;;17.48;3.97;;;;;;;11.94;66.68;99165.56;4884332;28;121377;-86
2022/02/06 04:03:57;;;;;;;15.95;3.65;;;;;;;12.06;67.49;99187.56;4888950;28;119561;-84
2022/02/06 04:06:26;;;;;;;13.25;3.35;;;;;;;12.07;66.50;99194.59;4895395;28;120128;-84
2022/02/06 04:08:52;;;;;;;15.35;3.15;;;;;;;11.98;66.64;99179.06;4883530;28;123189;-85
2022/02/06 04:11:25;;;;;;;13.10;2.78;;;;;;;11.92;66.46;99181.03;4867804;28;120015;-84
2022/02/06 04:16:54;;;;;;;11.10;2.05;;;;;;;11.83;66.09;99192.25;4874982;28;123185;-89
2022/02/06 04:19:29;;;;;;;14.57;2.30;;;;;;;11.53;66.18;99151.41;4886765;28;119563;-89
2022/02/06 04:21:58;;;;;;;14.10;2.00;;;;;;;11.79;65.99;99192.47;4854480;28;123238;-87
2022/02/06 04:24:27;;;;;;;9.90;1.90;;;;;;;11.72;65.96;99200.41;4868056;28;120435;-88
2022/02/06 04:26:53;;;;;;;9.93;1.65;;;;;;;11.59;65.92;99192.63;4881639;28;119825;-89
2022/02/06 04:29:20;;;;;;;8.63;1.83;;;;;;;11.73;65.92;99213.66;4900438;28;120030;-89
2022/02/06 04:31:48;;;;;;;11.00;1.67;;;;;;;11.44;65.83;99179.09;4865368;28;119657;-88
2022/02/06 04:34:20;;;;;;;9.98;2.00;;;;;;;11.32;66.03;99147.31;4877446;28;121682;-87
2022/02/06 04:37:02;;;;;;;13.15;1.80;;;;;;;11.60;66.04;99191.41;4884307;28;120533;-88
2022/02/06 05:28:05;;;;;;;;;;;;;;;11.25;66.71;99177.97;4882213;28;123460;-88
2022/02/06 05:30:30;;;;;;;9.27;1.30;;;;;;;11.22;66.35;99170.75;4882135;28;120408;-88
2022/02/06 05:32:59;;;;;;;15.18;2.20;;;;;;;11.26;65.78;99176.75;4873469;28;122661;-88
2022/02/06 05:35:27;;;;;;;11.10;1.83;;;;;;;11.00;66.40;99128.22;4880204;28;119821;-87
2022/02/06 05:37:55;;;;;;;11.63;1.70;;;;;;;11.23;65.98;99175.72;4891079;28;119870;-86
2022/02/06 05:40:21;;;;;;;8.05;1.75;;;;;;;11.18;65.89;99154.50;4868346;28;122678;-86
2022/02/06 05:42:47;;;;;;;10.93;2.00;;;;;;;11.06;65.88;99145.44;4883174;28;119589;-87
2022/02/06 05:45:13;;;;;;;7.78;1.60;;;;;;;11.12;65.77;99147.47;4880875;28;122183;-87
2022/02/06 05:47:38;;;;;;;6.88;1.25;;;;;;;11.12;66.06;99147.47;4883239;28;120167;-87
2022/02/06 05:50:05;;;;;;;11.40;1.70;;;;;;;10.98;66.23;99127.94;4890987;28;119784;-86
2022/02/06 05:52:32;;;;;;;6.40;1.58;;;;;;;10.91;65.99;99106.47;4867909;28;122631;-88
2022/02/06 05:54:58;;;;;;;10.50;1.73;;;;;;;10.96;65.86;99116.72;4878691;28;119775;-85
2022/02/06 05:57:24;;;;;;;12.13;1.90;;;;;;;11.07;65.33;99133.22;4891131;28;119964;-88
2022/02/06 05:59:50;;;;;;;8.73;1.75;;;;;;;10.75;65.10;99094.16;4893648;28;120497;-88
2022/02/06 06:02:17;;;;;;;12.32;1.92;;;;;;;11.02;65.90;99146.91;4882278;28;119702;-88
2022/02/06 06:04:43;;;;;;;8.38;1.55;;;;;;;10.99;66.13;99134.94;4862951;28;121966;-87
2022/02/06 06:07:09;;;;;;;15.23;2.25;;;;;;;10.98;66.00;99132.69;4877862;28;122068;-86
2022/02/06 06:09:34;;;;;;;12.82;1.73;;;;;;;10.71;66.14;99098.38;4890547;28;120254;-84
2022/02/06 06:12:00;;;;;;;11.30;1.83;;;;;;;10.66;65.77;99090.88;4881462;28;121852;-87
2022/02/06 06:14:29;;;;;;;9.73;1.50;;;;;;;10.98;66.00;99132.69;4880573;28;120787;-87
2022/02/06 06:16:56;;;;;;;11.52;1.60;;;;;;;10.88;66.08;99110.16;4847996;28;121247;-87
2022/02/06 06:19:22;;;;;;;8.48;1.67;;;;;;;10.93;66.02;99134.16;4875576;28;122919;-85
2022/02/06 06:21:53;;;;;;;8.40;1.85;;;;;;;10.81;66.60;99107.91;4880331;28;122298;-87
2022/02/06 06:24:21;;;;;;;7.47;1.63;;;;;;;10.90;66.07;99121.44;4862502;28;122431;-84
2022/02/06 06:26:47;;;;;;;10.23;1.77;;;;;;;10.95;65.92;99134.41;4869582;28;122822;-86
2022/02/06 06:29:12;;;;;;;9.77;1.70;;;;;;;10.93;65.99;99131.41;4879456;28;119896;-87
2022/02/06 06:31:38;;;;;;;12.13;1.90;;;;;;;10.83;66.02;99115.63;4847605;28;121407;-88
2022/02/06 06:34:06;;;;;;;10.98;2.00;;;;;;;10.57;65.89;99088.28;4869580;28;123280;-87
2022/02/06 06:36:33;;;;;;;13.43;2.05;;;;;;;10.65;66.48;99083.88;4878241;28;121145;-86
2022/02/06 06:39:00;;;;;;;15.27;2.05;;;;;;;10.53;66.32;99080.31;4875545;28;121645;-88
2022/02/06 06:41:26;;;;;;;10.70;2.08;;;;;;;10.78;66.67;99119.84;4888192;28;119643;-87
2022/02/06 06:43:51;;;;;;;8.00;1.60;;;;;;;10.57;66.66;99082.81;4876352;28;119817;-86
2022/02/06 06:46:17;;;;;;;8.80;1.88;;;;;;;10.78;66.80;99097.91;4877339;28;122365;-87
2022/02/06 06:48:42;;;;;;;18.25;2.30;;;;;;;10.86;66.10;99109.91;4882647;28;119514;-87
2022/02/06 06:51:11;;;;;;;14.98;2.25;;;;;;;10.86;66.98;99100.94;4886297;28;120191;-85
2022/02/06 06:53:40;;;;;;;17.83;2.22;;;;;;;10.81;67.34;99091.44;4881167;28;121500;-87
2022/02/06 06:56:29;;;;;;;18.10;2.25;;;;;;;10.84;67.51;99106.16;4892862;28;119703;-87
2022/02/06 06:58:54;;;;;;;13.45;2.38;;;;;;;10.95;67.29;99112.47;4872098;28;123738;-86
2022/02/06 07:03:46;;;;;;;13.30;2.17;;;;;;;10.84;67.22;99095.19;4883350;28;120032;-88
2022/02/06 07:06:11;;;;;;;14.20;2.65;;;;;;;10.55;67.19;99042.19;4884051;28;123182;-87
2022/02/06 07:08:37;;;;;;;14.70;2.40;;;;;;;10.72;67.12;99067.72;4880640;28;120673;-85
2022/02/06 07:11:02;;;;;;;13.82;2.60;;;;;;;10.83;67.50;99069.00;4883271;28;122753;-87
2022/02/06 07:13:28;;;;;;;17.40;2.30;;;;;;;10.78;67.34;99065.00;4873477;28;123199;-89
2022/02/06 07:15:54;;;;;;;16.15;2.95;;;;;;;11.02;66.86;99112.00;4858694;28;119510;-85
2022/02/06 07:18:20;;;;;;;19.08;2.80;;;;;;;11.02;66.92;99103.78;4866757;28;120341;-86
2022/02/06 07:20:47;;;;;;;17.70;2.50;;;;;;;11.08;67.54;99095.56;4884182;28;120000;-86
2022/02/06 07:23:13;;;;;;;17.88;2.97;;;;;;;11.10;69.34;99087.59;4854384;28;122996;-86
2022/02/06 07:25:41;;;;;;;15.93;2.60;;;;;;;10.93;68.11;99076.56;4877215;28;120539;-86
2022/02/06 07:28:14;;;;;;;14.30;2.47;;;;;;;11.26;68.44;99106.13;4900581;28;120977;-85
2022/02/06 07:30:40;;;;;;;15.75;2.67;;;;;;;11.11;67.49;99069.13;4867082;28;121181;-85
2022/02/06 07:33:06;;;;;;;20.08;2.78;;;;;;;11.26;68.08;99075.19;4880135;28;120580;-84
2022/02/06 07:35:32;;;;;;;17.55;2.58;;;;;;;11.20;67.35;99068.94;4881052;28;120415;-85
2022/02/06 07:37:58;;;;;;;19.25;2.90;;;;;;;11.29;67.10;99072.22;4886775;28;119632;-84
2022/02/06 07:40:25;;;;;;;13.45;2.70;;;;;;;11.38;67.21;99071.25;4882117;28;123244;-86
2022/02/06 07:42:51;;;;;;;19.52;2.92;;;;;;;11.43;67.95;99073.28;4848280;28;122330;-84
2022/02/06 07:45:23;;;;;;;21.75;3.63;;;;;;;11.39;66.94;99056.28;4871434;28;124171;-85
2022/02/06 07:47:49;;;;;;;20.85;3.03;;;;;;;11.48;66.37;99066.28;4878909;28;120246;-84
2022/02/06 07:50:16;;;;;;;18.63;3.63;;;;;;;11.30;65.88;99031.78;4869083;28;122091;-85
2022/02/06 07:52:42;;;;;;;24.52;3.83;;;;;;;11.45;67.51;99054.31;4882532;28;123083;-85
2022/02/06 07:55:09;;;;;;;15.90;2.92;;;;;;;11.49;67.32;99052.06;4882262;28;119752;-86
2022/02/06 07:57:40;;;;;;;26.33;3.33;;;;;;;11.55;67.22;99058.31;4896302;28;122141;-84
2022/02/06 08:00:10;;;;;;;21.85;3.28;;;;;;;11.59;66.86;99058.84;4880537;28;122167;-85
2022/02/06 08:02:43;;;;;;;19.17;3.60;;;;;;;11.61;67.17;99048.09;4899567;28;121105;-86
2022/02/06 08:05:10;;;;;;;24.48;4.30;;;;;;;11.63;67.46;99045.63;4894086;28;119839;-86
2022/02/06 08:07:36;;;;;;;27.85;4.03;;;;;;;11.44;67.07;99010.88;4872541;28;119693;-83
2022/02/06 08:10:03;;;;;;;23.55;3.67;;;;;;;11.68;67.46;99035.88;4865876;28;122221;-86
2022/02/06 08:12:32;;;;;;;27.45;3.55;;;;;;;11.77;67.13;99037.63;4889924;28;121097;-86
2022/02/06 08:15:02;;;;;;;19.77;4.03;;;;;;;11.69;66.76;99029.88;4860793;28;119995;-83
2022/02/06 08:17:29;;;;;;;24.70;4.78;;;;;;;11.74;67.94;99016.66;4876132;28;121666;-85
2022/02/06 08:19:59;;;;;;;25.27;4.50;;;;;;;11.77;66.94;99001.91;4863135;28;123535;-87
2022/02/06 08:22:25;;;;;;;31.25;4.68;;;;;;;11.93;66.27;99012.94;4883157;28;120036;-86
2022/02/06 08:24:52;;;;;;;24.17;3.97;;;;;;;11.75;66.97;98971.47;4878616;28;120405;-87
2022/02/06 08:27:23;;;;;;;30.52;5.00;;;;;;;11.94;67.47;98989.72;4863913;28;119801;-86
2022/02/06 08:29:51;;;;;;;33.27;4.80;;;;;;;12.02;66.36;99006.44;4880480;28;119760;-85
2022/02/06 08:32:19;;;;;;;28.58;4.47;;;;;;;11.90;66.46;98983.72;4875022;28;122929;-86
2022/02/06 08:34:45;;;;;;;33.15;4.63;;;;;;;11.94;66.36;98977.97;4889731;28;120421;-85
2022/02/06 08:37:11;;;;;;;28.15;5.25;;;;;;;12.07;66.48;98991.97;4867969;28;122797;-84
2022/02/06 08:39:39;;;;;;;29.10;5.15;;;;;;;11.96;66.47;98964.50;4872268;28;120601;-86
2022/02/06 08:42:06;;;;;;;30.73;5.38;;;;;;;12.07;66.51;98975.50;4866334;28;120087;-86
2022/02/06 08:44:33;;;;;;;35.90;6.03;;;;;;;12.07;65.88;98975.50;4883084;28;119894;-85
2022/02/06 08:46:59;;;;;;;36.92;6.03;;;;;;;12.06;65.91;98978.72;4885245;28;119595;-85
2022/02/06 08:49:25;;;;;;;37.75;6.25;;;;;;;12.03;66.34;98980.47;4889981;28;124342;-86
2022/02/06 08:51:52;;;;;;;35.47;6.10;;;;;;;12.05;66.56;98975.22;4895439;28;120345;-84
2022/02/06 08:54:28;;;;;;;41.95;6.97;;;;;;;12.05;67.26;98972.47;4897883;28;120501;-85
2022/02/06 08:56:59;;;;;;;45.08;6.40;;;;;;;12.11;67.58;98973.22;4866677;28;121851;-83
2022/02/06 08:59:25;;;;;;;34.33;6.20;;;;;;;12.06;68.45;98951.97;4861195;28;120223;-84
2022/02/06 09:01:50;;;;;;;43.28;7.10;;;;;;;12.05;67.21;98946.97;4893840;28;120048;-84
2022/02/06 09:04:16;;;;;;;42.30;6.72;;;;;;;12.22;67.81;98953.97;4882985;28;122252;-84
2022/02/06 09:06:41;;;;;;;38.97;7.35;;;;;;;12.22;67.69;98961.47;4868748;28;123608;-84
2022/02/06 09:09:08;;;;;;;36.10;6.85;;;;;;;12.22;67.03;98950.47;4878896;28;122858;-84
2022/02/06 09:11:34;;;;;;;47.88;7.25;;;;;;;12.22;67.42;98934.72;4861901;28;123863;-86
2022/02/06 09:14:00;;;;;;;30.52;6.45;;;;;;;12.36;68.76;98934.94;4849992;28;120485;-86
2022/02/06 09:16:29;;;;;;;34.95;6.53;;;;;;;12.42;68.08;98938.41;4867245;28;119811;-82
2022/02/06 09:18:54;;;;;;;39.53;6.95;;;;;;;12.45;67.36;98943.66;4877674;28;123161;-81
2022/02/06 09:21:23;;;;;;;37.83;6.53;;;;;;;12.44;67.91;98924.91;4891163;28;119685;-83
2022/02/06 09:23:49;;;;;;;33.45;5.72;;;;;;;12.43;67.21;98928.91;4881043;28;122348;-83
2022/02/06 09:26:15;;;;;;;38.80;6.40;;;;;;;12.49;67.11;98922.13;4861794;28;123076;-85
2022/02/06 09:28:41;;;;;;;33.90;5.78;;;;;;;12.47;66.78;98901.91;4859146;28;120044;-83
2022/02/06 09:31:09;;;;;;;33.50;6.00;;;;;;;12.55;65.66;98908.38;4866971;28;123018;-85
2022/02/06 09:36:00;;;;;;;34.83;6.55;;;;;;;12.48;65.97;98892.41;4882396;28;120727;-83
2022/02/06 09:38:26;;;;;;;36.50;7.55;;;;;;;12.45;65.90;98874.91;4877815;28;121768;-86
2022/02/06 09:40:53;;;;;;;41.53;6.75;;;;;;;12.54;65.42;98891.13;4881087;28;120449;-87
2022/02/06 09:43:20;;;;;;;39.88;6.95;;;;;;;12.58;65.70;98890.88;4881292;28;120363;-86
2022/02/06 09:45:47;;;;;;;37.63;6.40;;;;;;;12.63;65.73;98879.09;4875548;28;120091;-84
2022/02/06 09:48:15;;;;;;;40.00;7.03;;;;;;;12.45;65.67;98843.94;4859053;28;119845;-88
2022/02/06 09:50:45;;;;;;;40.40;7.40;;;;;;;12.70;64.71;98872.31;4882870;28;122005;-88
2022/02/06 09:53:11;;;;;;;41.85;6.75;;;;;;;12.66;65.12;98850.56;4867502;28;120134;-85
2022/02/06 09:55:39;;;;;;;33.95;5.65;;;;;;;12.70;64.90;98853.03;4884664;28;122384;-87
2022/02/06 09:58:38;;;;;;;39.13;6.93;;;;;;;12.37;64.13;98804.47;4875562;28;122966;-85
2022/02/06 10:01:00;;;;;;;42.88;7.68;;;;;;;12.68;66.56;98839.06;4867968;28;120057;-83
2022/02/06 10:03:27;;;;;;;33.88;6.40;;;;;;;12.60;65.26;98823.09;4853227;28;120351;-85
2022/02/06 10:05:54;;;;;;;29.60;6.10;;;;;;;12.68;65.22;98833.56;4881574;28;120885;-86
2022/02/06 10:08:31;;;;;;;31.45;6.07;;;;;;;12.46;65.12;98801.44;4859768;28;122900;-87
2022/02/06 10:11:16;;;;;;;39.40;6.28;;;;;;;12.67;64.84;98837.56;4900315;28;122579;-87
2022/02/06 10:13:43;;;;;;;34.40;5.53;;;;;;;12.63;65.09;98826.84;4880280;28;119593;-88
2022/02/06 10:16:11;;;;;;;33.20;5.40;;;;;;;12.59;64.90;98829.88;4853334;28;122574;-87
2022/02/06 10:18:38;;;;;;;29.98;6.38;;;;;;;12.56;64.21;98830.13;4862711;28;123883;-87
2022/02/06 10:21:05;;;;;;;32.92;6.43;;;;;;;12.44;64.69;98817.69;4876056;28;120129;-86
2022/02/06 10:26:09;;;;;;;34.95;5.88;;;;;;;12.42;63.83;98811.94;4865399;28;124001;-87
2022/02/06 10:28:46;;;;;;;46.95;6.53;;;;;;;12.34;64.24;98797.25;4888347;28;120608;-88
2022/02/06 10:31:13;;;;;;;33.70;7.60;;;;;;;12.34;64.06;98794.50;4858685;28;121978;-87
2022/02/06 10:33:41;;;;;;;35.40;6.60;;;;;;;12.36;65.18;98797.50;4889782;28;123696;-86
2022/02/06 10:36:07;;;;;;;34.05;6.35;;;;;;;12.17;65.04;98773.34;4888135;28;121324;-85
2022/02/06 10:38:33;;;;;;;39.70;6.65;;;;;;;12.20;65.38;98777.81;4881739;28;120767;-84
2022/02/06 10:41:05;;;;;;;35.53;6.15;;;;;;;12.34;64.82;98795.25;4882552;28;121875;-87
2022/02/06 10:43:32;;;;;;;37.63;6.60;;;;;;;12.27;64.72;98795.75;4864865;28;123041;-86
2022/02/06 10:46:11;;;;;;;35.60;6.13;;;;;;;12.33;64.37;98784.75;4870550;28;122625;-85
2022/02/06 10:48:44;;;;;;;37.13;6.28;;;;;;;12.26;64.76;98780.53;4872057;28;120045;-84
2022/02/06 10:51:09;;;;;;;36.85;5.82;;;;;;;12.17;66.05;98759.59;4886697;28;120539;-87
2022/02/06 10:53:35;;;;;;;33.83;5.55;;;;;;;12.27;65.25;98743.53;4872212;28;122151;-88
2022/02/06 10:56:04;;;;;;;39.20;6.00;;;;;;;12.26;65.32;98750.28;4885207;28;121694;-86
2022/02/06 10:58:32;;;;;;;40.35;5.97;;;;;;;12.22;64.75;98745.06;4867027;28;123326;-88
2022/02/06 11:01:05;;;;;;;30.33;5.63;;;;;;;12.26;64.79;98731.81;4906261;28;119612;-87
2022/02/06 11:03:36;;;;;;;33.80;5.78;;;;;;;12.29;64.83;98719.78;4887993;28;122148;-83
2022/02/06 11:06:11;;;;;;;30.60;5.68;;;;;;;12.20;64.48;98711.84;4883942;28;124125;-86
2022/02/06 11:08:38;;;;;;;33.58;6.15;;;;;;;12.30;65.05;98715.03;4885218;28;120283;-86
2022/02/06 11:11:05;;;;;;;41.72;6.45;;;;;;;12.32;64.78;98712.53;4872756;28;121322;-85
2022/02/06 11:13:34;;;;;;;33.67;6.03;;;;;;;12.21;64.80;98694.09;4856639;28;123275;-86
2022/02/06 11:16:06;;;;;;;31.27;5.93;;;;;;;12.36;65.00;98698.53;4889443;28;120002;-86
2022/02/06 11:18:38;;;;;;;37.22;6.55;;;;;;;12.38;65.48;98707.00;4884684;28;121431;-85
2022/02/06 11:21:09;;;;;;;36.60;6.65;;;;;;;12.42;64.38;98696.47;4881397;28;120177;-86
2022/02/06 11:23:41;;;;;;;31.08;6.22;;;;;;;12.41;65.27;98684.00;4857094;28;122023;-86
2022/02/06 11:26:17;;;;;;;33.58;5.70;;;;;;;12.41;65.04;98673.75;4868712;28;122827;-86
2022/02/06 11:28:43;;;;;;;34.08;5.38;;;;;;;12.33;64.37;98661.81;4873694;28;120165;-86
2022/02/06 11:31:09;;;;;;;36.47;5.63;;;;;;;12.36;64.64;98665.53;4869549;28;123204;-84
2022/02/06 11:33:36;;;;;;;30.25;6.45;;;;;;;12.41;64.43;98668.25;4866486;28;123474;-85
2022/02/06 11:36:09;;;;;;;26.63;6.40;;;;;;;12.41;64.54;98660.00;4884348;28;120152;-82
2022/02/06 11:44:57;;;;;;;34.50;5.50;;;;;;;12.44;64.36;98634.22;4880006;28;123069;-86
2022/02/06 11:47:34;;;;;;;27.80;5.00;;;;;;;12.42;64.29;98625.00;4851211;28;124290;-86
2022/02/06 11:50:07;;;;;;;24.25;4.28;;;;;;;12.34;64.11;98619.31;4868251;28;119974;-86
2022/02/06 11:52:58;;;;;;;26.13;4.40;;;;;;;12.28;64.49;98613.84;4864352;28;123292;-84
2022/02/06 11:55:50;;;;;;;34.30;4.80;;;;;;;12.27;64.53;98606.84;4851483;28;123997;-87
2022/02/06 11:58:26;;;;;;;30.00;5.30;;;;;;;12.25;64.45;98595.63;4880867;28;119943;-85
2022/02/06 12:01:07;;;;;;;27.92;4.93;;;;;;;12.26;64.00;98586.13;4871058;28;122751;-86
2022/02/06 12:04:00;;;;;;;29.58;5.20;;;;;;;12.27;64.24;98578.63;4865246;28;123890;-85
2022/02/06 12:06:29;;;;;;;32.60;5.78;;;;;;;12.29;64.66;98573.34;4867944;28;121989;-86
2022/02/06 12:08:58;;;;;;;26.23;5.25;;;;;;;12.34;65.29;98582.84;4870059;28;123095;-87
2022/02/06 12:11:26;;;;;;;24.05;4.65;;;;;;;12.23;64.87;98562.41;4851813;28;123164;-85
2022/02/06 12:14:24;;;;;;;30.10;4.90;;;;;;;12.38;65.98;98569.56;4882269;28;122369;-84
2022/02/06 12:17:25;;;;;;;31.48;5.43;;;;;;;12.35;65.50;98568.59;4868430;28;123445;-84
2022/02/06 12:20:16;;;;;;;35.00;5.07;;;;;;;12.35;64.95;98556.84;4883108;28;120333;-86
2022/02/06 12:22:43;;;;;;;20.80;4.13;;;;;;;12.33;65.66;98562.84;4882782;28;125394;-86
2022/02/06 12:25:35;;;;;;;18.38;3.58;;;;;;;12.29;65.45;98551.38;4875546;28;121531;-86
2022/02/06 12:28:18;;;;;;;15.20;3.33;;;;;;;12.26;67.87;98552.41;4890211;28;119974;-87
2022/02/06 12:30:45;;;;;;;13.27;2.35;;;;;;;12.20;66.84;98540.72;4883824;28;120421;-87
2022/02/06 12:33:26;;;;;;;7.75;2.33;;;;;;;12.23;64.89;98543.19;4893236;28;120200;-84
2022/02/06 12:38:36;;;;;;;;;;;;;;;12.13;64.27;98533.03;4898113;28;121210;-85
2022/02/06 12:41:18;;;;;;;11.13;2.70;;;;;;;12.12;64.82;98526.06;4868521;28;120128;-85
2022/02/06 12:43:52;;;;;;;12.52;3.65;;;;;;;11.95;64.43;98501.47;4867518;28;121378;-84
2022/02/06 12:46:21;;;;;;;13.80;4.63;;;;;;;11.92;64.48;98497.00;4896768;28;121058;-86
2022/02/06 12:48:48;;;;;;;14.88;3.45;;;;;;;11.93;65.78;98504.72;4849706;28;120377;-84
2022/02/06 12:51:13;;;;;;;9.27;2.47;;;;;;;11.99;64.86;98519.16;4870860;28;124672;-82
2022/02/06 12:53:39;;;;;;;12.70;2.53;;;;;;;11.92;65.96;98494.25;4882046;28;119948;-85
2022/02/06 12:56:04;;;;;;;7.93;1.70;;;;;;;11.96;65.09;98500.94;4867536;28;120672;-83
2022/02/06 12:58:30;;;;;;;9.68;1.90;;;;;;;11.99;64.80;98504.66;4865601;28;122811;-85
2022/02/06 13:00:56;;;;;;;8.45;2.60;;;;;;;11.90;65.47;98485.78;4880614;28;120056;-86
2022/02/06 13:03:28;;;;;;;9.60;2.50;;;;;;;12.09;64.56;98522.34;4879164;28;119878;-86
2022/02/06 13:06:01;;;;;;;11.13;2.33;;;;;;;12.06;65.18;98523.34;4865167;28;123201;-85
2022/02/06 13:08:28;;;;;;;14.47;2.37;;;;;;;12.06;64.63;98509.59;4884903;28;120024;-83
2022/02/06 13:11:02;;;;;;;9.02;2.25;;;;;;;12.03;65.46;98513.38;4883135;28;120841;-86
2022/02/06 13:13:38;;;;;;;13.40;2.65;;;;;;;12.08;64.65;98522.84;4881034;28;123503;-87
2022/02/06 13:22:12;;;;;;;23.97;6.30;;;;;;;12.04;64.33;98509.38;4827744;28;120606;-85
2022/02/06 13:30:10;;;;;;;21.00;4.38;;;;;;;12.15;66.95;98503.78;4865157;28;121844;-86
2022/02/06 13:35:30;;;;;;;;;;;;;;;;;;;;;
2022/02/06 13:37:44;;;;;;;19.25;4.25;;;;;;;12.12;64.21;98493.81;4868725;28;119956;-88
2022/02/06 13:40:15;;;;;;;15.93;3.58;;;;;;;12.12;64.77;98484.84;4861953;28;123619;-83
2022/02/06 13:43:04;;;;;;;24.52;4.13;;;;;;;12.25;64.50;98507.69;4849009;28;119669;-85
2022/02/06 13:45:34;;;;;;;25.20;4.82;;;;;;;12.17;64.78;98501.25;4849180;28;120167;-83
2022/02/06 13:48:00;;;;;;;17.17;3.78;;;;;;;12.31;65.25;98517.91;4857040;28;120578;-83
2022/02/06 13:50:27;;;;;;;13.60;2.80;;;;;;;12.16;64.99;98486.03;4833892;28;122089;-85
2022/02/06 13:53:09;;;;;;;17.10;3.40;;;;;;;12.28;63.53;98500.41;4866567;28;120165;-82
2022/02/06 13:55:43;;;;;;;14.65;2.97;;;;;;;12.33;65.19;98520.88;4864591;28;120390;-84
2022/02/06 13:58:16;;;;;;;12.90;2.30;;;;;;;12.31;64.28;98523.41;4865093;28;121180;-86